Terminal Aerodrome Forecast
Issued by NWS

Home | Current Version | Previous Version | Text Only | Print | Product List | Glossary On
Versions: 1 2 3 4 5 6 7 8 9 10 11 12 13 14 15 16 17 18
000
FTUS42 KTAE 302324
TAFDHN
TAF
KDHN 302324Z 3100/3124 36003KT P6SM SKC
     FM310900 04003KT 5SM BR SCT015
     FM311300 35005KT P6SM SCT030=

USA.gov is the U.S. government's official web portal to all federal, state and local government web resources and services.